Time;durP1;ratioP1;P1;durP2;ratioP2;P2;SDS_P1;SDS_P2;PMS_P1;PMS_P2;Temp;Humidity;BMP_temperature;BMP_pressure;BME280_temperature;BME280_humidity;BME280_pressure;Samples;Min_cycle;Max_cycle;Signal;HPM_P1;HPM_P2
2022/04/24 00:00:41;;;;;;;9.00;8.10;;;;;;;;;;5014150;28;20214;-76
2022/04/24 00:03:07;;;;;;;8.40;7.60;;;;;;;;;;5014584;28;20218;-78
2022/04/24 00:05:34;;;;;;;8.47;7.67;;;;;;;;;;5014548;28;20179;-76
2022/04/24 00:08:01;;;;;;;7.77;6.97;;;;;;;;;;5011404;28;20223;-76
2022/04/24 00:10:27;;;;;;;7.40;6.70;;;;;;;;;;5014140;28;20175;-75
2022/04/24 00:12:53;;;;;;;8.50;7.70;;;;;;;;;;5014883;28;20274;-75
2022/04/24 00:15:20;;;;;;;9.00;8.10;;;;;;;;;;5013225;28;20203;-75
2022/04/24 00:17:46;;;;;;;9.27;8.33;;;;;;;;;;5014122;28;20203;-76
2022/04/24 00:20:12;;;;;;;9.10;8.27;;;;;;;;;;5013962;28;20234;-76
2022/04/24 00:22:38;;;;;;;9.53;8.63;;;;;;;;;;5014547;28;20274;-76
2022/04/24 00:25:05;;;;;;;8.93;8.13;;;;;;;;;;5014803;28;20184;-76
2022/04/24 00:27:32;;;;;;;10.23;8.37;;;;;;;;;;5014435;28;20646;-75
2022/04/24 00:29:58;;;;;;;9.53;7.83;;;;;;;;;;5013794;28;20187;-75
2022/04/24 00:32:24;;;;;;;8.17;7.43;;;;;;;;;;5014348;28;20204;-75
2022/04/24 00:34:50;;;;;;;8.10;7.30;;;;;;;;;;5006347;28;20180;-75
2022/04/24 00:37:17;;;;;;;9.23;8.33;;;;;;;;;;5009958;28;20206;-75
2022/04/24 00:39:43;;;;;;;8.60;7.80;;;;;;;;;;5008769;28;20553;-75
2022/04/24 00:42:09;;;;;;;9.57;7.70;;;;;;;;;;5014060;28;20202;-75
2022/04/24 00:44:35;;;;;;;8.40;7.60;;;;;;;;;;5011850;28;20183;-75
2022/04/24 00:47:41;;;;;;;8.90;8.10;;;;;;;;;;5006311;28;20211;-75
2022/04/24 00:50:08;;;;;;;8.27;7.40;;;;;;;;;;5014128;28;20198;-75
2022/04/24 00:52:34;;;;;;;8.60;7.80;;;;;;;;;;5014221;28;20545;-76
2022/04/24 00:55:01;;;;;;;9.23;8.10;;;;;;;;;;5012451;28;20202;-76
2022/04/24 00:57:28;;;;;;;8.30;7.50;;;;;;;;;;5013848;28;20203;-75
2022/04/24 00:59:54;;;;;;;8.97;8.07;;;;;;;;;;5013821;28;20545;-75
2022/04/24 01:02:20;;;;;;;8.43;7.70;;;;;;;;;;5013770;28;20207;-76
2022/04/24 01:04:46;;;;;;;8.97;8.07;;;;;;;;;;5012481;28;20183;-75
2022/04/24 01:07:13;;;;;;;8.40;7.60;;;;;;;;;;5009947;28;20195;-75
2022/04/24 01:09:39;;;;;;;8.03;7.27;;;;;;;;;;5012366;28;20216;-75
2022/04/24 01:12:06;;;;;;;8.37;7.57;;;;;;;;;;5014577;28;20209;-75
2022/04/24 01:14:32;;;;;;;8.07;7.37;;;;;;;;;;5013750;28;20210;-75
2022/04/24 01:16:59;;;;;;;9.23;8.33;;;;;;;;;;5008178;28;20629;-75
2022/04/24 01:19:26;;;;;;;8.90;8.10;;;;;;;;;;5009340;28;20179;-75
2022/04/24 01:21:52;;;;;;;8.73;7.90;;;;;;;;;;5003170;28;20207;-75
2022/04/24 01:24:20;;;;;;;8.60;7.80;;;;;;;;;;5010813;28;20187;-75
2022/04/24 01:26:47;;;;;;;9.57;8.27;;;;;;;;;;5007157;28;20223;-75
2022/04/24 01:29:14;;;;;;;9.87;8.87;;;;;;;;;;5003726;28;20180;-74
2022/04/24 01:31:41;;;;;;;9.20;8.30;;;;;;;;;;5003499;28;20242;-75
2022/04/24 01:34:07;;;;;;;8.80;7.97;;;;;;;;;;5008256;28;20195;-75
2022/04/24 01:36:34;;;;;;;9.10;8.30;;;;;;;;;;5004440;28;20190;-75
2022/04/24 01:39:00;;;;;;;9.07;8.17;;;;;;;;;;5006758;28;20647;-75
2022/04/24 01:41:26;;;;;;;9.60;8.67;;;;;;;;;;5009294;28;20294;-75
2022/04/24 01:43:53;;;;;;;8.80;7.90;;;;;;;;;;5007525;28;20183;-75
2022/04/24 01:46:19;;;;;;;8.70;7.80;;;;;;;;;;5007002;28;20657;-75
2022/04/24 01:48:45;;;;;;;9.83;8.87;;;;;;;;;;5022986;28;20199;-75
2022/04/24 01:51:14;;;;;;;10.67;9.30;;;;;;;;;;5004497;28;20183;-75
2022/04/24 01:53:40;;;;;;;10.57;9.07;;;;;;;;;;5009424;28;20667;-75
2022/04/24 01:56:07;;;;;;;9.97;9.07;;;;;;;;;;5007019;28;20215;-75
2022/04/24 01:58:34;;;;;;;10.70;9.60;;;;;;;;;;5009781;28;20207;-75
2022/04/24 02:01:01;;;;;;;10.50;9.40;;;;;;;;;;5004909;28;20214;-75
2022/04/24 02:03:28;;;;;;;9.40;8.50;;;;;;;;;;5002674;28;20604;-75
2022/04/24 02:05:54;;;;;;;9.93;9.03;;;;;;;;;;5000605;28;20191;-75
2022/04/24 02:08:20;;;;;;;10.43;9.43;;;;;;;;;;5008827;28;20203;-75
2022/04/24 02:10:46;;;;;;;11.27;9.17;;;;;;;;;;5006954;28;20194;-75
2022/04/24 02:13:13;;;;;;;10.70;9.33;;;;;;;;;;5011162;28;20191;-75
2022/04/24 02:15:39;;;;;;;10.10;9.10;;;;;;;;;;5002807;28;20179;-75
2022/04/24 02:18:05;;;;;;;9.90;9.00;;;;;;;;;;5008822;28;20218;-75
2022/04/24 02:20:31;;;;;;;10.07;8.70;;;;;;;;;;5007734;28;20194;-75
2022/04/24 02:22:57;;;;;;;10.43;8.40;;;;;;;;;;5010542;28;20256;-75
2022/04/24 02:25:24;;;;;;;9.70;8.80;;;;;;;;;;5010036;28;20179;-75
2022/04/24 02:27:53;;;;;;;10.03;9.03;;;;;;;;;;5007985;28;20207;-75
2022/04/24 02:30:20;;;;;;;10.20;9.30;;;;;;;;;;5004106;28;20229;-75
2022/04/24 02:32:47;;;;;;;10.03;9.03;;;;;;;;;;5005265;28;20183;-74
2022/04/24 02:35:13;;;;;;;10.13;8.80;;;;;;;;;;5007400;28;20282;-74
2022/04/24 02:37:50;;;;;;;10.47;9.37;;;;;;;;;;5011807;28;20213;-75
2022/04/24 02:40:21;;;;;;;10.27;9.27;;;;;;;;;;5011292;28;20195;-75
2022/04/24 02:42:47;;;;;;;9.93;8.90;;;;;;;;;;5004786;28;20528;-74
2022/04/24 02:45:13;;;;;;;12.33;8.30;;;;;;;;;;5010434;28;20179;-75
2022/04/24 02:47:40;;;;;;;10.83;8.80;;;;;;;;;;5003000;28;20221;-75
2022/04/24 02:50:07;;;;;;;9.47;8.40;;;;;;;;;;5010672;28;20202;-75
2022/04/24 02:52:33;;;;;;;10.13;9.17;;;;;;;;;;5005039;28;20274;-75
2022/04/24 02:54:59;;;;;;;9.83;8.90;;;;;;;;;;5004761;28;20270;-74
2022/04/24 02:57:25;;;;;;;9.67;8.67;;;;;;;;;;5010351;28;20205;-75
2022/04/24 02:59:51;;;;;;;10.17;9.17;;;;;;;;;;5009854;28;20202;-75
2022/04/24 03:02:18;;;;;;;9.60;8.70;;;;;;;;;;5008488;28;20757;-75
2022/04/24 03:04:56;;;;;;;9.17;8.27;;;;;;;;;;5005797;28;20279;-75
2022/04/24 03:07:22;;;;;;;8.83;7.93;;;;;;;;;;4989950;28;20608;-75
2022/04/24 03:09:48;;;;;;;10.63;8.37;;;;;;;;;;5007079;28;20191;-75
2022/04/24 03:12:14;;;;;;;7.97;7.27;;;;;;;;;;5005404;28;20249;-75
2022/04/24 03:14:40;;;;;;;8.73;7.83;;;;;;;;;;5007557;28;21202;-75
2022/04/24 03:17:06;;;;;;;9.37;8.37;;;;;;;;;;5005843;28;20211;-75
2022/04/24 03:19:33;;;;;;;9.10;8.30;;;;;;;;;;5007849;28;20550;-75
2022/04/24 03:21:59;;;;;;;9.00;8.20;;;;;;;;;;5000494;28;20210;-75
2022/04/24 03:24:25;;;;;;;8.70;7.90;;;;;;;;;;5009377;28;20215;-75
2022/04/24 03:26:51;;;;;;;8.60;7.80;;;;;;;;;;5005399;28;20701;-75
2022/04/24 03:29:18;;;;;;;9.67;8.67;;;;;;;;;;5007611;28;20183;-75
2022/04/24 03:31:44;;;;;;;9.83;8.93;;;;;;;;;;5008607;28;20278;-75
2022/04/24 03:34:10;;;;;;;10.07;8.20;;;;;;;;;;5005174;28;20191;-75
2022/04/24 03:36:36;;;;;;;9.00;8.10;;;;;;;;;;5010271;28;20559;-75
2022/04/24 03:39:03;;;;;;;8.80;8.00;;;;;;;;;;5009172;28;20187;-75
2022/04/24 03:41:29;;;;;;;9.17;8.37;;;;;;;;;;5010144;28;20652;-75
2022/04/24 03:43:55;;;;;;;10.57;9.10;;;;;;;;;;5010312;28;20176;-75
2022/04/24 03:46:21;;;;;;;9.50;8.60;;;;;;;;;;5000736;28;20179;-75
2022/04/24 03:48:48;;;;;;;10.60;9.50;;;;;;;;;;5007822;28;20199;-75
2022/04/24 03:51:14;;;;;;;10.63;9.20;;;;;;;;;;5010235;28;20179;-75
2022/04/24 03:53:40;;;;;;;11.17;10.07;;;;;;;;;;5010434;28;20317;-75
2022/04/24 03:56:06;;;;;;;10.27;8.83;;;;;;;;;;4998854;28;20228;-75
2022/04/24 03:58:34;;;;;;;10.70;9.60;;;;;;;;;;5009918;28;20805;-75
2022/04/24 04:01:00;;;;;;;10.60;9.60;;;;;;;;;;5007953;28;20234;-75
2022/04/24 04:03:26;;;;;;;10.77;9.73;;;;;;;;;;5011029;28;20274;-75
2022/04/24 04:05:52;;;;;;;10.60;9.60;;;;;;;;;;5006803;28;20188;-75
2022/04/24 04:08:18;;;;;;;10.47;9.47;;;;;;;;;;5009431;28;20204;-75
2022/04/24 04:10:44;;;;;;;10.47;9.47;;;;;;;;;;5007374;28;20194;-75
2022/04/24 04:13:11;;;;;;;10.00;9.00;;;;;;;;;;5019513;28;20207;-75
2022/04/24 04:15:37;;;;;;;10.43;9.47;;;;;;;;;;5011177;28;20754;-75
2022/04/24 04:18:03;;;;;;;10.10;9.10;;;;;;;;;;5003547;28;20222;-75
2022/04/24 04:20:30;;;;;;;9.80;8.80;;;;;;;;;;5010175;28;20187;-75
2022/04/24 04:22:56;;;;;;;11.83;9.53;;;;;;;;;;5010929;28;20183;-75
2022/04/24 04:25:26;;;;;;;10.80;9.80;;;;;;;;;;5009870;28;20175;-75
2022/04/24 04:27:53;;;;;;;10.07;9.07;;;;;;;;;;5008432;28;20196;-75
2022/04/24 04:30:20;;;;;;;9.67;8.67;;;;;;;;;;5007327;28;20206;-74
2022/04/24 04:32:46;;;;;;;11.43;9.43;;;;;;;;;;5014259;28;20273;-74
2022/04/24 04:35:13;;;;;;;9.83;8.90;;;;;;;;;;5011856;28;20279;-74
2022/04/24 04:37:39;;;;;;;10.70;9.60;;;;;;;;;;5014189;28;20238;-74
2022/04/24 04:40:06;;;;;;;10.10;9.10;;;;;;;;;;5014101;28;20694;-74
2022/04/24 04:42:33;;;;;;;9.63;8.63;;;;;;;;;;5014525;28;20213;-75
2022/04/24 04:45:00;;;;;;;9.27;8.17;;;;;;;;;;5012357;28;20552;-75
2022/04/24 04:47:31;;;;;;;8.90;8.00;;;;;;;;;;5012329;28;20199;-75
2022/04/24 04:49:57;;;;;;;8.40;7.50;;;;;;;;;;5007712;28;20191;-75
2022/04/24 04:52:25;;;;;;;7.70;7.00;;;;;;;;;;5012441;28;20183;-75
2022/04/24 04:54:52;;;;;;;8.53;7.70;;;;;;;;;;5011423;28;20643;-75
2022/04/24 04:57:18;;;;;;;7.87;7.17;;;;;;;;;;5013672;28;20253;-74
2022/04/24 04:59:44;;;;;;;8.90;8.00;;;;;;;;;;5013427;28;20198;-74
2022/04/24 05:02:11;;;;;;;8.20;7.40;;;;;;;;;;5011414;28;20297;-75
2022/04/24 05:04:38;;;;;;;7.90;7.10;;;;;;;;;;5011713;28;20187;-75
2022/04/24 05:07:05;;;;;;;8.20;7.40;;;;;;;;;;5010776;28;20214;-75
2022/04/24 05:09:31;;;;;;;7.97;7.17;;;;;;;;;;5012795;28;20179;-75
2022/04/24 05:11:57;;;;;;;8.37;7.50;;;;;;;;;;5012245;28;20222;-75
2022/04/24 05:14:23;;;;;;;9.40;8.30;;;;;;;;;;5011646;28;20179;-75
2022/04/24 05:16:49;;;;;;;8.40;7.60;;;;;;;;;;5012759;28;20187;-75
2022/04/24 05:19:15;;;;;;;8.13;7.33;;;;;;;;;;5012693;28;20238;-75
2022/04/24 05:21:41;;;;;;;8.53;7.30;;;;;;;;;;5012217;28;20217;-75
2022/04/24 05:24:07;;;;;;;8.07;7.00;;;;;;;;;;5012068;28;20229;-75
2022/04/24 05:26:33;;;;;;;7.77;7.07;;;;;;;;;;5012793;28;20210;-75
2022/04/24 05:28:59;;;;;;;8.23;7.23;;;;;;;;;;5010161;28;20687;-75
2022/04/24 05:31:26;;;;;;;7.93;7.13;;;;;;;;;;5013389;28;20262;-75
2022/04/24 05:33:52;;;;;;;7.50;6.80;;;;;;;;;;5008230;28;20530;-75
2022/04/24 05:36:18;;;;;;;7.50;6.17;;;;;;;;;;5013142;28;20187;-75
2022/04/24 05:38:44;;;;;;;7.80;7.10;;;;;;;;;;5011617;28;20207;-75
2022/04/24 05:41:10;;;;;;;8.50;7.60;;;;;;;;;;5011313;28;20707;-75
2022/04/24 05:43:36;;;;;;;8.00;7.20;;;;;;;;;;5008696;28;20187;-75
2022/04/24 05:46:02;;;;;;;7.77;6.97;;;;;;;;;;5010271;28;20214;-75
2022/04/24 05:48:29;;;;;;;8.20;7.37;;;;;;;;;;5008081;28;20254;-75
2022/04/24 05:50:55;;;;;;;7.23;6.53;;;;;;;;;;5006310;28;20271;-75
2022/04/24 05:53:32;;;;;;;8.50;7.33;;;;;;;;;;5011805;28;20213;-75
2022/04/24 05:55:58;;;;;;;8.30;7.50;;;;;;;;;;5011799;28;20246;-75
2022/04/24 05:58:24;;;;;;;8.20;7.40;;;;;;;;;;5012766;28;20206;-75
2022/04/24 06:00:51;;;;;;;7.93;7.13;;;;;;;;;;5008125;28;20203;-75
2022/04/24 06:03:17;;;;;;;8.77;7.07;;;;;;;;;;5027654;28;20737;-74
2022/04/24 06:05:45;;;;;;;7.80;7.00;;;;;;;;;;5011558;28;20601;-75
2022/04/24 06:08:11;;;;;;;7.87;7.17;;;;;;;;;;5009910;28;20294;-75
2022/04/24 06:10:37;;;;;;;9.70;7.50;;;;;;;;;;5011059;28;20179;-76
2022/04/24 06:13:04;;;;;;;6.90;6.30;;;;;;;;;;5012080;28;20219;-75
2022/04/24 06:15:30;;;;;;;7.80;7.10;;;;;;;;;;5011781;28;20262;-75
2022/04/24 06:17:57;;;;;;;8.20;7.40;;;;;;;;;;5012172;28;20523;-75
2022/04/24 06:20:24;;;;;;;7.37;6.60;;;;;;;;;;5010043;28;20183;-75
2022/04/24 06:22:55;;;;;;;7.47;6.77;;;;;;;;;;5011292;28;20242;-74
2022/04/24 06:25:22;;;;;;;6.40;5.80;;;;;;;;;;5012498;28;20179;-75
2022/04/24 06:27:48;;;;;;;7.00;6.30;;;;;;;;;;5011335;28;20552;-75
2022/04/24 06:30:15;;;;;;;7.17;6.50;;;;;;;;;;5008190;28;20207;-75
2022/04/24 06:32:50;;;;;;;7.37;6.57;;;;;;;;;;5010409;28;21204;-75
2022/04/24 06:35:17;;;;;;;7.70;6.50;;;;;;;;;;5008173;28;20175;-75
2022/04/24 06:37:45;;;;;;;7.60;6.90;;;;;;;;;;5006665;28;20211;-75
2022/04/24 06:40:11;;;;;;;7.70;7.00;;;;;;;;;;5012846;28;20549;-79
2022/04/24 06:42:49;;;;;;;6.77;6.13;;;;;;;;;;4996794;28;20218;-79
2022/04/24 06:45:15;;;;;;;7.07;6.37;;;;;;;;;;5010777;28;20259;-78
2022/04/24 06:47:42;;;;;;;7.63;6.83;;;;;;;;;;5012669;28;20209;-76
2022/04/24 06:50:09;;;;;;;6.93;6.00;;;;;;;;;;5013386;28;20183;-78
2022/04/24 06:52:35;;;;;;;8.83;7.33;;;;;;;;;;5013712;28;20195;-78
2022/04/24 06:55:01;;;;;;;7.17;6.47;;;;;;;;;;5012220;28;20183;-78
2022/04/24 06:57:27;;;;;;;7.73;6.37;;;;;;;;;;5018795;28;20219;-78
2022/04/24 06:59:54;;;;;;;7.97;6.80;;;;;;;;;;5013253;28;20190;-77
2022/04/24 07:02:20;;;;;;;8.10;7.30;;;;;;;;;;5006562;28;20237;-78
2022/04/24 07:04:46;;;;;;;8.33;7.17;;;;;;;;;;5013649;28;20551;-79
2022/04/24 07:07:12;;;;;;;7.37;6.67;;;;;;;;;;5013716;28;20199;-79
2022/04/24 07:09:39;;;;;;;8.23;7.43;;;;;;;;;;5012967;28;20182;-78
2022/04/24 07:12:05;;;;;;;7.60;6.80;;;;;;;;;;5009109;28;20219;-78
2022/04/24 07:14:32;;;;;;;12.00;6.87;;;;;;;;;;5009503;28;20269;-78
2022/04/24 07:16:59;;;;;;;7.30;6.60;;;;;;;;;;5004816;28;20207;-78
2022/04/24 07:19:25;;;;;;;7.70;6.23;;;;;;;;;;5010938;28;20224;-78
2022/04/24 07:21:51;;;;;;;7.17;6.47;;;;;;;;;;5012870;28;20682;-78
2022/04/24 07:24:18;;;;;;;7.70;6.97;;;;;;;;;;5008490;28;20179;-78
2022/04/24 07:26:44;;;;;;;8.00;7.20;;;;;;;;;;5004965;28;20179;-78
2022/04/24 07:29:11;;;;;;;8.73;7.53;;;;;;;;;;5009891;28;20183;-78
2022/04/24 07:31:37;;;;;;;8.20;7.37;;;;;;;;;;5011088;28;20195;-78
2022/04/24 07:34:03;;;;;;;7.83;7.03;;;;;;;;;;5008128;28;20302;-77
2022/04/24 07:36:29;;;;;;;8.87;7.53;;;;;;;;;;5008581;28;20184;-79
2022/04/24 07:38:55;;;;;;;8.63;7.73;;;;;;;;;;5008413;28;20207;-78
2022/04/24 07:41:22;;;;;;;9.90;8.20;;;;;;;;;;5012933;28;20215;-79
2022/04/24 07:43:49;;;;;;;8.87;7.30;;;;;;;;;;5008570;28;20183;-79
2022/04/24 07:46:15;;;;;;;8.73;7.83;;;;;;;;;;5011901;28;20183;-78
2022/04/24 07:48:41;;;;;;;9.03;8.13;;;;;;;;;;5009506;28;20206;-78
2022/04/24 07:51:08;;;;;;;8.90;8.00;;;;;;;;;;5009337;28;20682;-78
2022/04/24 07:53:34;;;;;;;8.47;7.60;;;;;;;;;;5006601;28;20213;-78
2022/04/24 07:56:00;;;;;;;9.07;7.77;;;;;;;;;;5008949;28;20190;-79
2022/04/24 07:58:26;;;;;;;8.57;7.50;;;;;;;;;;5006086;28;20207;-79
2022/04/24 08:01:18;;;;;;;9.07;7.63;;;;;;;;;;4994363;28;20740;-79
2022/04/24 08:03:45;;;;;;;9.43;8.13;;;;;;;;;;4994013;28;20183;-75
2022/04/24 08:06:11;;;;;;;11.23;8.20;;;;;;;;;;5012064;28;20182;-77
2022/04/24 08:08:38;;;;;;;10.43;7.27;;;;;;;;;;5010276;28;20284;-77
2022/04/24 08:11:04;;;;;;;9.23;7.53;;;;;;;;;;4993822;28;20195;-78
2022/04/24 08:13:30;;;;;;;8.87;7.40;;;;;;;;;;5012044;28;20183;-77
2022/04/24 08:15:57;;;;;;;10.17;8.07;;;;;;;;;;4995619;28;20179;-79
2022/04/24 08:18:23;;;;;;;9.33;8.27;;;;;;;;;;5013645;28;20570;-78
2022/04/24 08:20:50;;;;;;;8.97;8.07;;;;;;;;;;5013315;28;20254;-78
2022/04/24 08:23:16;;;;;;;8.97;8.07;;;;;;;;;;5014850;28;20214;-80
2022/04/24 08:25:42;;;;;;;9.23;8.23;;;;;;;;;;5021578;28;20679;-78
2022/04/24 08:28:29;;;;;;;9.03;8.13;;;;;;;;;;4973329;28;20284;-80
2022/04/24 08:30:55;;;;;;;8.87;7.97;;;;;;;;;;5014336;28;20636;-77
2022/04/24 08:33:22;;;;;;;12.93;8.27;;;;;;;;;;5013671;28;20191;-76
2022/04/24 08:35:50;;;;;;;8.83;7.83;;;;;;;;;;5013229;28;20191;-80
2022/04/24 08:38:16;;;;;;;8.60;7.80;;;;;;;;;;5013382;28;20223;-79
2022/04/24 08:40:43;;;;;;;12.80;8.47;;;;;;;;;;5016977;28;20183;-80
2022/04/24 08:43:10;;;;;;;10.60;8.33;;;;;;;;;;5012909;28;20191;-77
2022/04/24 08:45:38;;;;;;;8.50;7.60;;;;;;;;;;5014764;28;20194;-78
2022/04/24 08:48:05;;;;;;;10.07;8.90;;;;;;;;;;5015692;28;20203;-78
2022/04/24 08:50:32;;;;;;;9.63;8.73;;;;;;;;;;5014323;28;20313;-77
2022/04/24 08:52:59;;;;;;;10.93;8.80;;;;;;;;;;5018853;28;20283;-77
2022/04/24 08:55:26;;;;;;;9.97;8.97;;;;;;;;;;5008278;28;20183;-78
2022/04/24 08:57:52;;;;;;;9.30;7.97;;;;;;;;;;4995784;28;20279;-78
2022/04/24 09:00:19;;;;;;;9.70;8.40;;;;;;;;;;5014474;28;20191;-77
2022/04/24 09:02:45;;;;;;;9.47;8.07;;;;;;;;;;5007219;28;20246;-77
2022/04/24 09:05:11;;;;;;;9.27;8.30;;;;;;;;;;5005501;28;20180;-76
2022/04/24 09:07:39;;;;;;;9.50;8.47;;;;;;;;;;5017576;28;20628;-78
2022/04/24 09:10:11;;;;;;;9.57;8.57;;;;;;;;;;5017691;28;20175;-74
2022/04/24 09:12:38;;;;;;;11.67;8.17;;;;;;;;;;5029571;28;20662;-75
2022/04/24 09:15:05;;;;;;;9.93;8.40;;;;;;;;;;5016051;28;20194;-78
2022/04/24 09:17:33;;;;;;;10.27;8.60;;;;;;;;;;5036038;28;20337;-79
2022/04/24 09:19:59;;;;;;;10.73;8.90;;;;;;;;;;5000735;28;20187;-79
2022/04/24 09:22:26;;;;;;;9.93;8.43;;;;;;;;;;5014685;28;20215;-78
2022/04/24 09:24:57;;;;;;;9.77;8.47;;;;;;;;;;5017304;28;20186;-77
2022/04/24 09:27:23;;;;;;;9.13;8.27;;;;;;;;;;5016325;28;20199;-78
2022/04/24 09:29:56;;;;;;;8.73;7.90;;;;;;;;;;5014233;28;20305;-78
2022/04/24 09:32:26;;;;;;;9.67;8.77;;;;;;;;;;5014848;28;20766;-78
2022/04/24 09:34:53;;;;;;;9.40;8.03;;;;;;;;;;5022154;28;20240;-78
2022/04/24 09:37:20;;;;;;;8.90;7.80;;;;;;;;;;4998309;28;20323;-77
2022/04/24 09:39:46;;;;;;;9.30;8.33;;;;;;;;;;5014521;28;20190;-78
2022/04/24 09:42:13;;;;;;;9.37;8.40;;;;;;;;;;4999449;28;20235;-79
2022/04/24 09:44:41;;;;;;;9.30;8.37;;;;;;;;;;5015389;28;20516;-78
2022/04/24 09:47:08;;;;;;;9.50;8.50;;;;;;;;;;5012260;28;20281;-77
2022/04/24 09:49:37;;;;;;;9.77;8.73;;;;;;;;;;5013566;28;20188;-82
2022/04/24 09:52:03;;;;;;;9.40;8.50;;;;;;;;;;4998995;28;20194;-79
2022/04/24 09:54:30;;;;;;;11.17;9.23;;;;;;;;;;5012382;28;20183;-78
2022/04/24 09:56:57;;;;;;;8.83;7.93;;;;;;;;;;5013384;28;20211;-78
2022/04/24 09:59:24;;;;;;;9.33;8.40;;;;;;;;;;5013650;28;20181;-79
2022/04/24 10:01:50;;;;;;;10.10;9.10;;;;;;;;;;5016021;28;20215;-80
2022/04/24 10:04:17;;;;;;;9.57;8.70;;;;;;;;;;5011172;28;20163;-79
2022/04/24 10:06:44;;;;;;;9.33;8.43;;;;;;;;;;5012789;28;20229;-80
2022/04/24 10:09:11;;;;;;;10.13;9.13;;;;;;;;;;5011858;28;20186;-80
2022/04/24 10:11:37;;;;;;;10.03;8.67;;;;;;;;;;5008602;28;20617;-79
2022/04/24 10:14:06;;;;;;;9.43;8.53;;;;;;;;;;5008856;28;20188;-79
2022/04/24 10:16:37;;;;;;;9.20;8.30;;;;;;;;;;5011465;28;20652;-79
2022/04/24 10:19:22;;;;;;;10.70;9.60;;;;;;;;;;5012363;28;20350;-79
2022/04/24 10:21:48;;;;;;;9.30;8.40;;;;;;;;;;5010275;28;20210;-80
2022/04/24 10:24:14;;;;;;;11.43;9.53;;;;;;;;;;4993485;28;20169;-79
2022/04/24 10:26:51;;;;;;;8.97;8.07;;;;;;;;;;5003658;28;20298;-79
2022/04/24 10:29:17;;;;;;;9.50;8.50;;;;;;;;;;5009296;28;20178;-80
2022/04/24 10:31:45;;;;;;;11.90;10.70;;;;;;;;;;4995168;28;20282;-79
2022/04/24 10:34:13;;;;;;;11.33;9.70;;;;;;;;;;5009884;28;20187;-79
2022/04/24 10:36:53;;;;;;;10.80;8.83;;;;;;;;;;5012279;28;20187;-79
2022/04/24 10:39:22;;;;;;;10.50;9.40;;;;;;;;;;5009111;28;20176;-78
2022/04/24 10:41:58;;;;;;;10.83;9.43;;;;;;;;;;5011019;28;20551;-78
2022/04/24 10:44:25;;;;;;;9.90;8.90;;;;;;;;;;5010775;28;20257;-77
2022/04/24 10:46:54;;;;;;;10.23;9.27;;;;;;;;;;5027236;28;20654;-77
2022/04/24 10:49:23;;;;;;;11.50;10.27;;;;;;;;;;5011552;28;20198;-78
2022/04/24 10:52:03;;;;;;;10.60;9.50;;;;;;;;;;5009653;28;20179;-78
2022/04/24 10:54:50;;;;;;;10.47;9.33;;;;;;;;;;5001089;28;20195;-79
2022/04/24 10:57:21;;;;;;;9.83;8.83;;;;;;;;;;5003418;28;20242;-80
2022/04/24 10:59:48;;;;;;;10.40;9.37;;;;;;;;;;5011554;28;20191;-79
2022/04/24 11:02:20;;;;;;;10.17;9.10;;;;;;;;;;5011001;28;20569;-78
2022/04/24 11:04:46;;;;;;;10.20;9.10;;;;;;;;;;5010100;28;20183;-79
2022/04/24 11:07:20;;;;;;;9.73;8.83;;;;;;;;;;5012145;28;20195;-79
2022/04/24 11:09:46;;;;;;;11.50;10.30;;;;;;;;;;4994035;28;20324;-79
2022/04/24 11:12:12;;;;;;;10.43;9.43;;;;;;;;;;5010693;28;20278;-79
2022/04/24 11:14:39;;;;;;;10.00;8.93;;;;;;;;;;5009247;28;20199;-80
2022/04/24 11:17:06;;;;;;;11.27;9.67;;;;;;;;;;5014265;28;20674;-80
2022/04/24 11:19:35;;;;;;;10.77;9.63;;;;;;;;;;5012854;28;20202;-80
2022/04/24 11:22:08;;;;;;;11.23;10.13;;;;;;;;;;5013558;28;20230;-80
2022/04/24 11:24:36;;;;;;;11.20;10.00;;;;;;;;;;5013465;28;20635;-80
2022/04/24 11:27:05;;;;;;;11.87;10.37;;;;;;;;;;5015656;28;20199;-80
2022/04/24 11:29:35;;;;;;;11.70;10.40;;;;;;;;;;4993233;28;20580;-79
2022/04/24 11:32:02;;;;;;;10.97;9.87;;;;;;;;;;4996116;28;20563;-80
2022/04/24 11:34:29;;;;;;;10.43;9.43;;;;;;;;;;5013431;28;20318;-80
2022/04/24 11:36:56;;;;;;;11.53;10.40;;;;;;;;;;5016182;28;20242;-80
2022/04/24 11:39:22;;;;;;;12.63;11.10;;;;;;;;;;5011863;28;20211;-77
2022/04/24 11:41:51;;;;;;;11.70;10.60;;;;;;;;;;5010487;28;20215;-78
2022/04/24 11:52:37;;;;;;;11.67;10.47;;;;;;;;;;4996083;28;20187;-76
2022/04/24 11:55:08;;;;;;;11.90;10.30;;;;;;;;;;5022991;28;20275;-78
2022/04/24 11:57:36;;;;;;;11.40;10.00;;;;;;;;;;5002268;28;20272;-81
2022/04/24 12:00:18;;;;;;;11.37;10.27;;;;;;;;;;5028672;28;20251;-80
2022/04/24 12:02:45;;;;;;;12.43;11.13;;;;;;;;;;5008656;28;20300;-79
2022/04/24 12:05:11;;;;;;;11.40;10.30;;;;;;;;;;5017264;28;20183;-85
2022/04/24 12:07:38;;;;;;;11.80;10.60;;;;;;;;;;5020572;28;20232;-80
2022/04/24 12:10:07;;;;;;;11.47;10.30;;;;;;;;;;5012615;28;20219;-81
2022/04/24 12:12:49;;;;;;;11.30;10.20;;;;;;;;;;4991556;28;20208;-79
2022/04/24 12:15:23;;;;;;;10.77;9.50;;;;;;;;;;5014552;28;20196;-80
2022/04/24 12:17:50;;;;;;;11.23;10.03;;;;;;;;;;5011816;28;20207;-78
2022/04/24 12:20:17;;;;;;;11.10;9.97;;;;;;;;;;5015544;28;20187;-78
2022/04/24 12:22:44;;;;;;;11.80;10.60;;;;;;;;;;4985467;28;20226;-79
2022/04/24 12:25:19;;;;;;;11.93;10.73;;;;;;;;;;5014016;28;20175;-79
2022/04/24 12:27:56;;;;;;;11.70;10.50;;;;;;;;;;5016004;28;20206;-82
2022/04/24 12:30:23;;;;;;;11.63;10.53;;;;;;;;;;5013523;28;20270;-82
2022/04/24 12:32:50;;;;;;;11.37;10.23;;;;;;;;;;5007844;28;20191;-81
2022/04/24 12:35:29;;;;;;;11.33;10.23;;;;;;;;;;4992704;28;20241;-80
2022/04/24 12:37:55;;;;;;;12.33;11.10;;;;;;;;;;5017372;28;20214;-79
2022/04/24 12:40:21;;;;;;;11.87;10.77;;;;;;;;;;5020065;28;20303;-79
2022/04/24 12:42:53;;;;;;;12.37;11.17;;;;;;;;;;5010505;28;20203;-83
2022/04/24 12:45:24;;;;;;;12.80;11.47;;;;;;;;;;4999193;28;20167;-78
2022/04/24 12:47:53;;;;;;;12.80;11.57;;;;;;;;;;5003654;28;20211;-79
2022/04/24 12:50:19;;;;;;;14.30;11.77;;;;;;;;;;5011003;28;20180;-77
2022/04/24 12:52:45;;;;;;;12.37;11.17;;;;;;;;;;5016011;28;20290;-79
2022/04/24 12:55:11;;;;;;;13.53;12.23;;;;;;;;;;4997491;28;20282;-80
2022/04/24 12:57:38;;;;;;;13.27;11.87;;;;;;;;;;4997882;28;20242;-80
2022/04/24 13:00:08;;;;;;;12.97;11.77;;;;;;;;;;5015419;28;20270;-80
2022/04/24 13:02:34;;;;;;;13.47;12.13;;;;;;;;;;4976923;28;20210;-80
2022/04/24 13:05:01;;;;;;;14.70;13.17;;;;;;;;;;4997027;28;20781;-80
2022/04/24 13:07:29;;;;;;;13.93;12.53;;;;;;;;;;5015472;28;20210;-80
2022/04/24 13:09:57;;;;;;;14.13;12.73;;;;;;;;;;5010027;28;20584;-81
2022/04/24 13:12:24;;;;;;;15.67;13.83;;;;;;;;;;5031823;28;20203;-80
2022/04/24 13:14:50;;;;;;;14.87;13.27;;;;;;;;;;5010929;28;20552;-80
2022/04/24 13:20:01;;;;;;;15.03;13.13;;;;;;;;;;5011482;28;20179;-80
2022/04/24 13:22:27;;;;;;;14.10;12.60;;;;;;;;;;5013031;28;20633;-80
2022/04/24 13:24:53;;;;;;;15.13;13.33;;;;;;;;;;5014416;28;20193;-80
2022/04/24 13:27:21;;;;;;;13.90;12.50;;;;;;;;;;5009677;28;20963;-82
2022/04/24 13:29:47;;;;;;;18.73;16.07;;;;;;;;;;4999169;28;20233;-82
2022/04/24 13:32:14;;;;;;;14.70;13.30;;;;;;;;;;5007497;28;20179;-78
2022/04/24 13:34:40;;;;;;;14.77;13.27;;;;;;;;;;5000494;28;20194;-81
2022/04/24 13:39:51;;;;;;;13.87;12.47;;;;;;;;;;5017701;28;20218;-81
2022/04/24 13:42:21;;;;;;;14.93;13.40;;;;;;;;;;4999495;28;20278;-81
2022/04/24 13:44:48;;;;;;;15.80;14.17;;;;;;;;;;5006090;28;20188;-78
2022/04/24 13:47:19;;;;;;;18.70;15.73;;;;;;;;;;5015304;28;20191;-78
2022/04/24 13:49:45;;;;;;;16.03;14.33;;;;;;;;;;5008781;28;20214;-77
2022/04/24 13:52:12;;;;;;;15.83;14.10;;;;;;;;;;5013351;28;20270;-76
2022/04/24 13:54:39;;;;;;;16.33;14.63;;;;;;;;;;5011556;28;20276;-76
2022/04/24 13:57:05;;;;;;;14.80;12.70;;;;;;;;;;5011962;28;20199;-76
2022/04/24 13:59:31;;;;;;;15.20;13.77;;;;;;;;;;5013006;28;20742;-76
2022/04/24 14:01:58;;;;;;;15.10;13.53;;;;;;;;;;5009733;28;20862;-76
2022/04/24 14:04:24;;;;;;;14.80;13.20;;;;;;;;;;5018222;28;20270;-76
2022/04/24 14:06:51;;;;;;;15.70;14.10;;;;;;;;;;5014959;28;20216;-76
2022/04/24 14:09:56;;;;;;;18.77;14.80;;;;;;;;;;4973242;28;20952;-77
2022/04/24 14:12:23;;;;;;;16.50;14.80;;;;;;;;;;4970962;28;20612;-76
2022/04/24 14:14:49;;;;;;;18.27;16.37;;;;;;;;;;4971511;28;20280;-76
2022/04/24 14:17:15;;;;;;;15.33;13.53;;;;;;;;;;4969790;28;20343;-76
2022/04/24 14:19:42;;;;;;;17.07;15.10;;;;;;;;;;4951807;29;20197;-76
2022/04/24 14:22:08;;;;;;;15.90;14.20;;;;;;;;;;4969569;28;20701;-76
2022/04/24 14:24:34;;;;;;;15.47;13.77;;;;;;;;;;4971187;28;20231;-76
2022/04/24 14:27:00;;;;;;;17.30;14.73;;;;;;;;;;4970602;28;20228;-76
2022/04/24 14:29:27;;;;;;;16.40;14.80;;;;;;;;;;4970611;28;20552;-76
2022/04/24 14:31:55;;;;;;;15.40;13.80;;;;;;;;;;4955255;28;20645;-76
2022/04/24 14:34:21;;;;;;;17.50;14.20;;;;;;;;;;4991544;28;20206;-76
2022/04/24 14:36:48;;;;;;;15.67;14.10;;;;;;;;;;4994292;28;20180;-76
2022/04/24 14:39:14;;;;;;;15.43;13.87;;;;;;;;;;5012376;28;20214;-76
2022/04/24 14:41:40;;;;;;;18.03;16.23;;;;;;;;;;5012129;28;20727;-76
2022/04/24 14:44:06;;;;;;;17.10;15.30;;;;;;;;;;5011963;28;20190;-76
2022/04/24 14:57:33;;;;;;;17.13;15.33;;;;;;;;;;5010331;28;20203;-76
2022/04/24 15:00:00;;;;;;;17.13;15.43;;;;;;;;;;5011615;28;20187;-76